Etusivu
METAR-TAF:

METAR-TAF

Lentoasemat :

Thunder Bayn kansainvälinen lentoasema

Thunder Bay, Ontario, Kanada

Leveyspiiri: 48-22N, Pituuspiiri: 089-19W, korkeus merenpinnasta: 199 m

Tämänhetkinen sää

Tämä raportti tehtiin 32 minuuttia sitten, kello 03.15 UTC
Tuuli 10 kn lännestä
Lämpötila -14°C
Kosteus 72%
Ilmanpaine 1019 hPa
Näkyvyys: 24.1 km
Hajanaisia pilviä 3200 ft:n korkeudessa

METAR: CYQT 250315Z 26010KT 15SM SCT032 M14/M18 A3010 RMK SC2 SLP212

Aika: 22:47 (03:47 UTC)

Sääennuste

Tämä raportti tehtiin 2 tuntia ja 9 minuuttia sitten, kello 01.38 UTC
Ennuste voimassa 25. päivästä klo 02 UTC - 25. päivään klo 14 UTC
Tuuli 8 kn lännestä
Näkyvyys: 10 km
Muutamia pilviä 3000 ft:n korkeudessa
From 25. päivästä klo 1200 UTC
Tuuli 6 kn lännestä/luoteesta
Näkyvyys: 10 km
Hajanaisia pilviä 10000 ft:n korkeudessa

TAF: CYQT 250138Z 2502/2514 27008KT P6SM FEW030 FM251200 30006KT P6SM SCT100 RMK NXT FCST BY 250800Z

Säähavainnot ja -ennusteet yli 4000 lentoasemalta (METAR- ja TAF-raportit).

Käytössä olevat sääasemat on merkitty karttaan keltaisilla ja punaisilla pisteillä.

Aseta hiiri pisteen päälle nähdäksesi sääaseman nimen.

Klikkaa sitten nähdäksesi säähavainnot ja -ennusteet.

Kartan vaihtaminen: klikkaa mustalla rastilla varustettuja vihreitä pisteitä, niin voit zoomata sisään; viivalla varustettua vihreää pistettä, niin voit zoomata ulos tai vihreitä nuolia, niin pääset viereisille kartoille.


METAR-TAF: